sensor_id;sensor_type;location;lat;lon;timestamp;temperature;humidity
18305;DHT22;9278;52.156;21.048;2022-07-18T00:00:40;14.40;99.90
18305;DHT22;9278;52.156;21.048;2022-07-18T00:03:09;14.30;99.90
18305;DHT22;9278;52.156;21.048;2022-07-18T00:05:37;14.40;99.90
18305;DHT22;9278;52.156;21.048;2022-07-18T00:08:05;14.20;99.90
18305;DHT22;9278;52.156;21.048;2022-07-18T00:10:33;14.30;99.90
18305;DHT22;9278;52.156;21.048;2022-07-18T00:13:03;14.10;99.90
18305;DHT22;9278;52.156;21.048;2022-07-18T00:15:31;14.00;99.90
18305;DHT22;9278;52.156;21.048;2022-07-18T00:17:59;14.00;99.90
18305;DHT22;9278;52.156;21.048;2022-07-18T00:20:28;14.00;99.90
18305;DHT22;9278;52.156;21.048;2022-07-18T00:22:56;14.00;99.90
18305;DHT22;9278;52.156;21.048;2022-07-18T00:25:24;13.90;99.90
18305;DHT22;9278;52.156;21.048;2022-07-18T00:27:52;13.90;99.90
18305;DHT22;9278;52.156;21.048;2022-07-18T00:30:22;14.10;99.90
18305;DHT22;9278;52.156;21.048;2022-07-18T00:32:50;14.00;99.90
18305;DHT22;9278;52.156;21.048;2022-07-18T00:35:18;14.00;99.90
18305;DHT22;9278;52.156;21.048;2022-07-18T00:37:46;13.90;99.90
18305;DHT22;9278;52.156;21.048;2022-07-18T00:40:14;13.80;99.90
18305;DHT22;9278;52.156;21.048;2022-07-18T00:42:42;13.70;99.90
18305;DHT22;9278;52.156;21.048;2022-07-18T00:45:10;13.60;99.90
18305;DHT22;9278;52.156;21.048;2022-07-18T00:47:40;13.50;99.90
18305;DHT22;9278;52.156;21.048;2022-07-18T00:50:09;13.60;99.90
18305;DHT22;9278;52.156;21.048;2022-07-18T00:52:38;13.60;99.90
18305;DHT22;9278;52.156;21.048;2022-07-18T00:55:07;13.70;99.90
18305;DHT22;9278;52.156;21.048;2022-07-18T00:57:39;13.60;99.90
18305;DHT22;9278;52.156;21.048;2022-07-18T01:00:10;13.60;99.90
18305;DHT22;9278;52.156;21.048;2022-07-18T01:02:58;13.60;99.90
18305;DHT22;9278;52.156;21.048;2022-07-18T01:05:26;13.60;99.90
18305;DHT22;9278;52.156;21.048;2022-07-18T01:07:54;13.50;99.90
18305;DHT22;9278;52.156;21.048;2022-07-18T01:10:22;13.50;99.90
18305;DHT22;9278;52.156;21.048;2022-07-18T01:12:51;13.40;99.90
18305;DHT22;9278;52.156;21.048;2022-07-18T01:15:19;13.30;99.90
18305;DHT22;9278;52.156;21.048;2022-07-18T01:17:47;13.30;99.90
18305;DHT22;9278;52.156;21.048;2022-07-18T01:20:17;13.40;99.90
18305;DHT22;9278;52.156;21.048;2022-07-18T01:22:47;13.50;99.90
18305;DHT22;9278;52.156;21.048;2022-07-18T01:25:15;13.40;99.90
18305;DHT22;9278;52.156;21.048;2022-07-18T01:27:44;13.30;99.90
18305;DHT22;9278;52.156;21.048;2022-07-18T01:30:12;13.40;99.90
18305;DHT22;9278;52.156;21.048;2022-07-18T01:32:42;13.40;99.90
18305;DHT22;9278;52.156;21.048;2022-07-18T01:35:11;13.40;99.90
18305;DHT22;9278;52.156;21.048;2022-07-18T01:37:39;13.30;99.90
18305;DHT22;9278;52.156;21.048;2022-07-18T01:40:10;13.30;99.90
18305;DHT22;9278;52.156;21.048;2022-07-18T01:42:38;13.40;99.90
18305;DHT22;9278;52.156;21.048;2022-07-18T01:45:07;13.40;99.90
18305;DHT22;9278;52.156;21.048;2022-07-18T01:47:35;13.40;99.90
18305;DHT22;9278;52.156;21.048;2022-07-18T01:50:05;13.30;99.90
18305;DHT22;9278;52.156;21.048;2022-07-18T01:52:33;13.30;99.90
18305;DHT22;9278;52.156;21.048;2022-07-18T01:55:03;13.30;99.90
18305;DHT22;9278;52.156;21.048;2022-07-18T01:57:33;13.50;99.90
18305;DHT22;9278;52.156;21.048;2022-07-18T02:00:01;13.40;99.90
18305;DHT22;9278;52.156;21.048;2022-07-18T02:02:30;13.30;99.90
18305;DHT22;9278;52.156;21.048;2022-07-18T02:04:58;13.20;99.90
18305;DHT22;9278;52.156;21.048;2022-07-18T02:07:28;13.20;99.90
18305;DHT22;9278;52.156;21.048;2022-07-18T02:09:57;13.10;99.90
18305;DHT22;9278;52.156;21.048;2022-07-18T02:12:26;13.00;99.90
18305;DHT22;9278;52.156;21.048;2022-07-18T02:14:55;13.00;99.90
18305;DHT22;9278;52.156;21.048;2022-07-18T02:17:23;13.00;99.90
18305;DHT22;9278;52.156;21.048;2022-07-18T02:19:52;13.00;99.90
18305;DHT22;9278;52.156;21.048;2022-07-18T02:22:20;13.00;99.90
18305;DHT22;9278;52.156;21.048;2022-07-18T02:24:48;13.00;99.90
18305;DHT22;9278;52.156;21.048;2022-07-18T02:27:16;12.90;99.90
18305;DHT22;9278;52.156;21.048;2022-07-18T02:29:45;12.90;99.90
18305;DHT22;9278;52.156;21.048;2022-07-18T02:32:15;13.00;99.90
18305;DHT22;9278;52.156;21.048;2022-07-18T02:34:43;13.00;99.90
18305;DHT22;9278;52.156;21.048;2022-07-18T02:37:12;13.00;99.90
18305;DHT22;9278;52.156;21.048;2022-07-18T02:39:40;13.00;99.90
18305;DHT22;9278;52.156;21.048;2022-07-18T02:42:09;13.00;99.90
18305;DHT22;9278;52.156;21.048;2022-07-18T02:44:37;13.10;99.90
18305;DHT22;9278;52.156;21.048;2022-07-18T02:47:05;13.10;99.90
18305;DHT22;9278;52.156;21.048;2022-07-18T02:49:35;13.00;99.90
18305;DHT22;9278;52.156;21.048;2022-07-18T02:52:07;13.10;99.90
18305;DHT22;9278;52.156;21.048;2022-07-18T02:54:37;13.20;99.90
18305;DHT22;9278;52.156;21.048;2022-07-18T02:57:06;13.10;99.90
18305;DHT22;9278;52.156;21.048;2022-07-18T02:59:35;13.10;99.90
18305;DHT22;9278;52.156;21.048;2022-07-18T03:02:03;13.00;99.90
18305;DHT22;9278;52.156;21.048;2022-07-18T03:04:32;13.00;99.90
18305;DHT22;9278;52.156;21.048;2022-07-18T03:07:01;13.00;99.90
18305;DHT22;9278;52.156;21.048;2022-07-18T03:09:30;13.00;99.90
18305;DHT22;9278;52.156;21.048;2022-07-18T03:11:58;13.10;99.90
18305;DHT22;9278;52.156;21.048;2022-07-18T03:14:26;13.10;99.90
18305;DHT22;9278;52.156;21.048;2022-07-18T03:16:55;13.10;99.90
18305;DHT22;9278;52.156;21.048;2022-07-18T03:19:23;13.40;99.90
18305;DHT22;9278;52.156;21.048;2022-07-18T03:21:51;13.40;99.90
18305;DHT22;9278;52.156;21.048;2022-07-18T03:24:21;13.30;99.90
18305;DHT22;9278;52.156;21.048;2022-07-18T03:26:49;13.50;99.90
18305;DHT22;9278;52.156;21.048;2022-07-18T03:29:17;13.40;99.90
18305;DHT22;9278;52.156;21.048;2022-07-18T03:31:46;13.60;99.90
18305;DHT22;9278;52.156;21.048;2022-07-18T03:34:14;13.50;99.90
18305;DHT22;9278;52.156;21.048;2022-07-18T03:36:42;13.50;99.90
18305;DHT22;9278;52.156;21.048;2022-07-18T03:39:10;13.50;99.90
18305;DHT22;9278;52.156;21.048;2022-07-18T03:41:40;13.60;99.90
18305;DHT22;9278;52.156;21.048;2022-07-18T03:44:08;13.60;99.90
18305;DHT22;9278;52.156;21.048;2022-07-18T03:46:36;13.80;99.90
18305;DHT22;9278;52.156;21.048;2022-07-18T03:49:05;13.80;99.90
18305;DHT22;9278;52.156;21.048;2022-07-18T03:51:33;13.90;99.90
18305;DHT22;9278;52.156;21.048;2022-07-18T03:54:01;14.00;99.90
18305;DHT22;9278;52.156;21.048;2022-07-18T03:56:30;14.00;99.90
18305;DHT22;9278;52.156;21.048;2022-07-18T03:59:00;14.10;99.90
18305;DHT22;9278;52.156;21.048;2022-07-18T04:01:28;14.20;99.90
18305;DHT22;9278;52.156;21.048;2022-07-18T04:03:56;14.10;99.90
18305;DHT22;9278;52.156;21.048;2022-07-18T04:06:24;14.30;99.90
18305;DHT22;9278;52.156;21.048;2022-07-18T04:08:53;14.30;99.90
18305;DHT22;9278;52.156;21.048;2022-07-18T04:11:21;14.50;99.90
18305;DHT22;9278;52.156;21.048;2022-07-18T04:13:53;14.50;99.90
18305;DHT22;9278;52.156;21.048;2022-07-18T04:16:23;14.50;99.90
18305;DHT22;9278;52.156;21.048;2022-07-18T04:18:51;14.50;99.90
18305;DHT22;9278;52.156;21.048;2022-07-18T04:21:20;14.40;99.90
18305;DHT22;9278;52.156;21.048;2022-07-18T04:23:48;14.50;99.90
18305;DHT22;9278;52.156;21.048;2022-07-18T04:26:17;14.60;99.90
18305;DHT22;9278;52.156;21.048;2022-07-18T04:28:45;14.60;99.90
18305;DHT22;9278;52.156;21.048;2022-07-18T04:31:13;14.60;99.90
18305;DHT22;9278;52.156;21.048;2022-07-18T04:33:43;14.60;99.90
18305;DHT22;9278;52.156;21.048;2022-07-18T04:36:11;14.50;99.90
18305;DHT22;9278;52.156;21.048;2022-07-18T04:38:40;14.60;99.90
18305;DHT22;9278;52.156;21.048;2022-07-18T04:41:08;14.60;99.90
18305;DHT22;9278;52.156;21.048;2022-07-18T04:43:36;14.70;99.90
18305;DHT22;9278;52.156;21.048;2022-07-18T04:46:04;14.90;99.90
18305;DHT22;9278;52.156;21.048;2022-07-18T04:48:32;15.10;99.90
18305;DHT22;9278;52.156;21.048;2022-07-18T04:51:02;15.00;99.90
18305;DHT22;9278;52.156;21.048;2022-07-18T04:53:30;15.30;99.90
18305;DHT22;9278;52.156;21.048;2022-07-18T04:55:58;15.40;99.90
18305;DHT22;9278;52.156;21.048;2022-07-18T04:58:26;15.30;99.90
18305;DHT22;9278;52.156;21.048;2022-07-18T05:00:55;15.60;99.90
18305;DHT22;9278;52.156;21.048;2022-07-18T05:03:23;15.60;99.90
18305;DHT22;9278;52.156;21.048;2022-07-18T05:05:51;15.80;99.90
18305;DHT22;9278;52.156;21.048;2022-07-18T05:08:21;16.00;99.90
18305;DHT22;9278;52.156;21.048;2022-07-18T05:10:49;16.30;99.90
18305;DHT22;9278;52.156;21.048;2022-07-18T05:13:18;16.40;99.90
18305;DHT22;9278;52.156;21.048;2022-07-18T05:15:46;16.60;99.90
18305;DHT22;9278;52.156;21.048;2022-07-18T05:18:14;16.60;99.90
18305;DHT22;9278;52.156;21.048;2022-07-18T05:20:43;16.50;99.90
18305;DHT22;9278;52.156;21.048;2022-07-18T05:23:14;16.80;99.90
18305;DHT22;9278;52.156;21.048;2022-07-18T05:25:45;16.70;99.90
18305;DHT22;9278;52.156;21.048;2022-07-18T05:28:13;16.80;99.90
18305;DHT22;9278;52.156;21.048;2022-07-18T05:30:42;17.00;99.90
18305;DHT22;9278;52.156;21.048;2022-07-18T05:33:10;17.10;99.90
18305;DHT22;9278;52.156;21.048;2022-07-18T05:35:38;17.20;99.90
18305;DHT22;9278;52.156;21.048;2022-07-18T05:38:06;17.20;99.90
18305;DHT22;9278;52.156;21.048;2022-07-18T05:40:34;17.40;99.90
18305;DHT22;9278;52.156;21.048;2022-07-18T05:43:04;17.40;99.90
18305;DHT22;9278;52.156;21.048;2022-07-18T05:45:34;17.50;99.90
18305;DHT22;9278;52.156;21.048;2022-07-18T05:48:03;17.40;99.90
18305;DHT22;9278;52.156;21.048;2022-07-18T05:50:32;17.40;99.90
18305;DHT22;9278;52.156;21.048;2022-07-18T05:53:00;18.00;99.90
18305;DHT22;9278;52.156;21.048;2022-07-18T05:55:28;18.20;99.90
18305;DHT22;9278;52.156;21.048;2022-07-18T05:57:56;18.20;99.90
18305;DHT22;9278;52.156;21.048;2022-07-18T06:00:26;18.50;99.90
18305;DHT22;9278;52.156;21.048;2022-07-18T06:02:54;18.70;99.90
18305;DHT22;9278;52.156;21.048;2022-07-18T06:05:22;18.90;99.90
18305;DHT22;9278;52.156;21.048;2022-07-18T06:07:53;18.70;99.90
18305;DHT22;9278;52.156;21.048;2022-07-18T06:10:23;18.30;99.90
18305;DHT22;9278;52.156;21.048;2022-07-18T06:12:51;18.70;99.90
18305;DHT22;9278;52.156;21.048;2022-07-18T06:15:20;18.50;99.90
18305;DHT22;9278;52.156;21.048;2022-07-18T06:17:51;18.40;99.90
18305;DHT22;9278;52.156;21.048;2022-07-18T06:20:19;18.80;99.90
18305;DHT22;9278;52.156;21.048;2022-07-18T06:22:48;19.30;99.90
18305;DHT22;9278;52.156;21.048;2022-07-18T06:25:16;19.30;99.90
18305;DHT22;9278;52.156;21.048;2022-07-18T06:27:44;19.30;99.90
18305;DHT22;9278;52.156;21.048;2022-07-18T06:30:13;19.10;99.90
18305;DHT22;9278;52.156;21.048;2022-07-18T06:32:42;19.40;99.90
18305;DHT22;9278;52.156;21.048;2022-07-18T06:35:11;19.40;99.90
18305;DHT22;9278;52.156;21.048;2022-07-18T06:37:44;19.40;99.90
18305;DHT22;9278;52.156;21.048;2022-07-18T06:40:13;19.20;99.90
18305;DHT22;9278;52.156;21.048;2022-07-18T06:42:42;18.90;99.90
18305;DHT22;9278;52.156;21.048;2022-07-18T06:45:10;19.10;99.90
18305;DHT22;9278;52.156;21.048;2022-07-18T06:47:40;19.30;99.90
18305;DHT22;9278;52.156;21.048;2022-07-18T06:50:11;19.50;99.90
18305;DHT22;9278;52.156;21.048;2022-07-18T06:52:40;19.60;99.90
18305;DHT22;9278;52.156;21.048;2022-07-18T06:55:10;19.60;99.90
18305;DHT22;9278;52.156;21.048;2022-07-18T06:57:39;19.80;99.90
18305;DHT22;9278;52.156;21.048;2022-07-18T07:00:11;18.90;99.90
18305;DHT22;9278;52.156;21.048;2022-07-18T07:02:41;19.10;99.90
18305;DHT22;9278;52.156;21.048;2022-07-18T07:05:13;19.00;99.90
18305;DHT22;9278;52.156;21.048;2022-07-18T07:07:42;19.10;99.90
18305;DHT22;9278;52.156;21.048;2022-07-18T07:10:15;19.50;99.90
18305;DHT22;9278;52.156;21.048;2022-07-18T07:12:46;19.40;99.90
18305;DHT22;9278;52.156;21.048;2022-07-18T07:15:18;19.10;99.90
18305;DHT22;9278;52.156;21.048;2022-07-18T07:17:47;19.10;99.90
18305;DHT22;9278;52.156;21.048;2022-07-18T07:20:19;18.90;99.90
18305;DHT22;9278;52.156;21.048;2022-07-18T07:22:52;18.90;99.90
18305;DHT22;9278;52.156;21.048;2022-07-18T07:25:21;19.10;99.90
18305;DHT22;9278;52.156;21.048;2022-07-18T07:27:52;19.10;99.90
18305;DHT22;9278;52.156;21.048;2022-07-18T07:30:20;19.70;99.90
18305;DHT22;9278;52.156;21.048;2022-07-18T07:32:52;19.80;99.90
18305;DHT22;9278;52.156;21.048;2022-07-18T07:35:22;19.50;99.90
18305;DHT22;9278;52.156;21.048;2022-07-18T07:37:55;19.70;99.90
18305;DHT22;9278;52.156;21.048;2022-07-18T07:40:25;19.70;99.90
18305;DHT22;9278;52.156;21.048;2022-07-18T07:43:05;19.10;99.90
18305;DHT22;9278;52.156;21.048;2022-07-18T07:45:34;19.70;99.90
18305;DHT22;9278;52.156;21.048;2022-07-18T07:48:09;19.20;99.90
18305;DHT22;9278;52.156;21.048;2022-07-18T07:50:48;19.40;99.90
18305;DHT22;9278;52.156;21.048;2022-07-18T07:53:17;19.50;99.90
18305;DHT22;9278;52.156;21.048;2022-07-18T07:55:45;20.10;99.90
18305;DHT22;9278;52.156;21.048;2022-07-18T07:58:14;20.80;99.90
18305;DHT22;9278;52.156;21.048;2022-07-18T08:00:42;20.70;99.90
18305;DHT22;9278;52.156;21.048;2022-07-18T08:03:10;20.00;99.90
18305;DHT22;9278;52.156;21.048;2022-07-18T08:05:46;19.70;99.90
18305;DHT22;9278;52.156;21.048;2022-07-18T08:08:15;19.70;99.90
18305;DHT22;9278;52.156;21.048;2022-07-18T08:10:44;19.70;99.90
18305;DHT22;9278;52.156;21.048;2022-07-18T08:13:14;19.60;99.90
18305;DHT22;9278;52.156;21.048;2022-07-18T08:15:42;19.50;99.90
18305;DHT22;9278;52.156;21.048;2022-07-18T08:18:13;19.90;99.90
18305;DHT22;9278;52.156;21.048;2022-07-18T08:20:41;20.40;99.90
18305;DHT22;9278;52.156;21.048;2022-07-18T08:23:11;20.30;99.90
18305;DHT22;9278;52.156;21.048;2022-07-18T08:25:41;21.10;99.90
18305;DHT22;9278;52.156;21.048;2022-07-18T08:28:11;21.40;99.90
18305;DHT22;9278;52.156;21.048;2022-07-18T08:30:40;21.30;99.90
18305;DHT22;9278;52.156;21.048;2022-07-18T08:33:08;21.50;99.90
18305;DHT22;9278;52.156;21.048;2022-07-18T08:35:37;21.30;99.90
18305;DHT22;9278;52.156;21.048;2022-07-18T08:38:06;21.50;99.90
18305;DHT22;9278;52.156;21.048;2022-07-18T08:40:37;21.60;99.90
18305;DHT22;9278;52.156;21.048;2022-07-18T08:43:05;20.80;99.90
18305;DHT22;9278;52.156;21.048;2022-07-18T08:45:51;21.40;99.90
18305;DHT22;9278;52.156;21.048;2022-07-18T08:48:22;21.50;99.90
18305;DHT22;9278;52.156;21.048;2022-07-18T08:50:51;22.00;99.90
18305;DHT22;9278;52.156;21.048;2022-07-18T08:53:19;22.10;99.90
18305;DHT22;9278;52.156;21.048;2022-07-18T08:55:49;21.70;99.90
18305;DHT22;9278;52.156;21.048;2022-07-18T08:58:17;21.90;99.90
18305;DHT22;9278;52.156;21.048;2022-07-18T09:01:06;20.50;99.90
18305;DHT22;9278;52.156;21.048;2022-07-18T09:03:34;21.30;99.90
18305;DHT22;9278;52.156;21.048;2022-07-18T09:06:04;21.70;99.90
18305;DHT22;9278;52.156;21.048;2022-07-18T09:08:33;21.20;99.90
18305;DHT22;9278;52.156;21.048;2022-07-18T09:11:08;20.80;99.90
18305;DHT22;9278;52.156;21.048;2022-07-18T09:13:56;20.30;99.90
18305;DHT22;9278;52.156;21.048;2022-07-18T09:16:25;20.60;99.90
18305;DHT22;9278;52.156;21.048;2022-07-18T09:18:54;20.90;99.90
18305;DHT22;9278;52.156;21.048;2022-07-18T09:21:24;21.10;99.90
18305;DHT22;9278;52.156;21.048;2022-07-18T09:23:57;20.80;99.90
18305;DHT22;9278;52.156;21.048;2022-07-18T09:26:41;20.80;99.90
18305;DHT22;9278;52.156;21.048;2022-07-18T09:29:14;20.80;99.90
18305;DHT22;9278;52.156;21.048;2022-07-18T09:31:54;20.70;99.90
18305;DHT22;9278;52.156;21.048;2022-07-18T09:34:33;20.70;99.90
18305;DHT22;9278;52.156;21.048;2022-07-18T09:37:03;20.70;99.90
18305;DHT22;9278;52.156;21.048;2022-07-18T09:39:32;20.90;99.90
18305;DHT22;9278;52.156;21.048;2022-07-18T09:42:14;21.10;99.90
18305;DHT22;9278;52.156;21.048;2022-07-18T09:44:43;21.10;99.90
18305;DHT22;9278;52.156;21.048;2022-07-18T09:47:24;21.40;99.90
18305;DHT22;9278;52.156;21.048;2022-07-18T09:49:52;21.60;99.90
18305;DHT22;9278;52.156;21.048;2022-07-18T09:52:21;21.70;99.90
18305;DHT22;9278;52.156;21.048;2022-07-18T09:54:50;21.80;99.90
18305;DHT22;9278;52.156;21.048;2022-07-18T09:57:26;21.80;99.90
18305;DHT22;9278;52.156;21.048;2022-07-18T09:59:55;21.70;99.90
18305;DHT22;9278;52.156;21.048;2022-07-18T10:02:23;21.90;99.90
18305;DHT22;9278;52.156;21.048;2022-07-18T10:04:52;21.90;99.90
18305;DHT22;9278;52.156;21.048;2022-07-18T10:07:20;21.90;99.90
18305;DHT22;9278;52.156;21.048;2022-07-18T10:09:49;22.30;99.90
18305;DHT22;9278;52.156;21.048;2022-07-18T10:12:18;22.60;99.90
18305;DHT22;9278;52.156;21.048;2022-07-18T10:14:48;22.80;99.90
18305;DHT22;9278;52.156;21.048;2022-07-18T10:17:17;22.90;99.90
18305;DHT22;9278;52.156;21.048;2022-07-18T10:19:47;22.00;99.90
18305;DHT22;9278;52.156;21.048;2022-07-18T10:22:16;22.80;99.90
18305;DHT22;9278;52.156;21.048;2022-07-18T10:24:44;23.80;98.70
18305;DHT22;9278;52.156;21.048;2022-07-18T10:27:18;24.50;94.10
18305;DHT22;9278;52.156;21.048;2022-07-18T10:30:11;23.60;93.70
18305;DHT22;9278;52.156;21.048;2022-07-18T10:32:40;22.40;98.90
18305;DHT22;9278;52.156;21.048;2022-07-18T10:35:10;23.20;98.80
18305;DHT22;9278;52.156;21.048;2022-07-18T10:37:42;23.40;96.80
18305;DHT22;9278;52.156;21.048;2022-07-18T10:40:26;23.10;95.50
18305;DHT22;9278;52.156;21.048;2022-07-18T10:43:33;22.40;98.50
18305;DHT22;9278;52.156;21.048;2022-07-18T10:46:04;22.80;99.20
18305;DHT22;9278;52.156;21.048;2022-07-18T10:48:58;23.20;97.30
18305;DHT22;9278;52.156;21.048;2022-07-18T10:54:25;23.70;96.00
18305;DHT22;9278;52.156;21.048;2022-07-18T10:57:09;23.50;95.10
18305;DHT22;9278;52.156;21.048;2022-07-18T11:03:06;23.80;95.20
18305;DHT22;9278;52.156;21.048;2022-07-18T11:05:42;23.50;96.30
18305;DHT22;9278;52.156;21.048;2022-07-18T11:08:22;23.60;94.50
18305;DHT22;9278;52.156;21.048;2022-07-18T11:11:22;24.50;94.20
18305;DHT22;9278;52.156;21.048;2022-07-18T11:14:03;24.00;90.50
18305;DHT22;9278;52.156;21.048;2022-07-18T11:17:03;23.90;91.20
18305;DHT22;9278;52.156;21.048;2022-07-18T11:19:34;24.20;91.20
18305;DHT22;9278;52.156;21.048;2022-07-18T11:22:06;24.70;90.50
18305;DHT22;9278;52.156;21.048;2022-07-18T11:24:52;24.90;84.80
18305;DHT22;9278;52.156;21.048;2022-07-18T11:27:22;23.80;91.50
18305;DHT22;9278;52.156;21.048;2022-07-18T11:30:21;23.50;93.70
18305;DHT22;9278;52.156;21.048;2022-07-18T11:32:58;23.90;92.00
18305;DHT22;9278;52.156;21.048;2022-07-18T11:35:36;23.80;90.90
18305;DHT22;9278;52.156;21.048;2022-07-18T11:38:11;24.40;90.00
18305;DHT22;9278;52.156;21.048;2022-07-18T11:40:47;24.70;91.00
18305;DHT22;9278;52.156;21.048;2022-07-18T11:43:29;24.60;84.60
18305;DHT22;9278;52.156;21.048;2022-07-18T11:46:05;24.70;86.60
18305;DHT22;9278;52.156;21.048;2022-07-18T11:48:46;23.80;88.60
18305;DHT22;9278;52.156;21.048;2022-07-18T11:51:43;24.20;90.00
18305;DHT22;9278;52.156;21.048;2022-07-18T11:54:22;23.80;90.50
18305;DHT22;9278;52.156;21.048;2022-07-18T11:56:53;23.80;90.80
18305;DHT22;9278;52.156;21.048;2022-07-18T11:59:22;23.70;90.50
18305;DHT22;9278;52.156;21.048;2022-07-18T12:01:50;24.00;89.50
18305;DHT22;9278;52.156;21.048;2022-07-18T12:04:35;24.10;86.70
18305;DHT22;9278;52.156;21.048;2022-07-18T12:07:20;24.60;86.00
18305;DHT22;9278;52.156;21.048;2022-07-18T12:09:54;24.00;87.30
18305;DHT22;9278;52.156;21.048;2022-07-18T12:12:53;24.30;87.10
18305;DHT22;9278;52.156;21.048;2022-07-18T12:19:07;23.70;92.90
18305;DHT22;9278;52.156;21.048;2022-07-18T12:21:53;23.90;90.30
18305;DHT22;9278;52.156;21.048;2022-07-18T12:24:38;24.10;86.10
18305;DHT22;9278;52.156;21.048;2022-07-18T12:27:39;24.20;87.40
18305;DHT22;9278;52.156;21.048;2022-07-18T12:30:18;24.90;81.40
18305;DHT22;9278;52.156;21.048;2022-07-18T12:33:13;24.00;85.10
18305;DHT22;9278;52.156;21.048;2022-07-18T12:36:22;24.60;85.00
18305;DHT22;9278;52.156;21.048;2022-07-18T12:38:59;24.40;84.80
18305;DHT22;9278;52.156;21.048;2022-07-18T12:41:37;23.90;87.00
18305;DHT22;9278;52.156;21.048;2022-07-18T12:44:05;24.30;86.00
18305;DHT22;9278;52.156;21.048;2022-07-18T12:46:47;23.90;87.90
18305;DHT22;9278;52.156;21.048;2022-07-18T12:49:29;24.50;84.30
18305;DHT22;9278;52.156;21.048;2022-07-18T12:52:04;24.50;83.90
18305;DHT22;9278;52.156;21.048;2022-07-18T12:54:32;24.50;80.80
18305;DHT22;9278;52.156;21.048;2022-07-18T12:57:07;24.20;82.80
18305;DHT22;9278;52.156;21.048;2022-07-18T12:59:42;24.40;83.00
18305;DHT22;9278;52.156;21.048;2022-07-18T13:02:16;24.40;80.70
18305;DHT22;9278;52.156;21.048;2022-07-18T13:04:47;25.20;79.50
18305;DHT22;9278;52.156;21.048;2022-07-18T13:07:17;25.00;75.00
18305;DHT22;9278;52.156;21.048;2022-07-18T13:09:46;24.50;79.80
18305;DHT22;9278;52.156;21.048;2022-07-18T13:12:20;24.70;82.30
18305;DHT22;9278;52.156;21.048;2022-07-18T13:14:49;24.90;78.10
18305;DHT22;9278;52.156;21.048;2022-07-18T13:17:26;24.40;76.30
18305;DHT22;9278;52.156;21.048;2022-07-18T13:19:56;24.50;81.70
18305;DHT22;9278;52.156;21.048;2022-07-18T13:22:28;23.70;83.10
18305;DHT22;9278;52.156;21.048;2022-07-18T13:25:05;24.10;84.40
18305;DHT22;9278;52.156;21.048;2022-07-18T13:27:37;24.60;77.80
18305;DHT22;9278;52.156;21.048;2022-07-18T13:30:09;25.30;75.00
18305;DHT22;9278;52.156;21.048;2022-07-18T13:32:39;25.50;72.50
18305;DHT22;9278;52.156;21.048;2022-07-18T13:35:13;25.30;72.60
18305;DHT22;9278;52.156;21.048;2022-07-18T13:37:41;25.10;72.30
18305;DHT22;9278;52.156;21.048;2022-07-18T13:40:15;24.30;76.10
18305;DHT22;9278;52.156;21.048;2022-07-18T13:42:50;24.70;78.30
18305;DHT22;9278;52.156;21.048;2022-07-18T13:45:18;24.90;74.50
18305;DHT22;9278;52.156;21.048;2022-07-18T13:47:48;25.20;73.30
18305;DHT22;9278;52.156;21.048;2022-07-18T13:50:16;24.70;72.50
18305;DHT22;9278;52.156;21.048;2022-07-18T13:52:45;24.80;74.50
18305;DHT22;9278;52.156;21.048;2022-07-18T13:55:17;24.40;72.90
18305;DHT22;9278;52.156;21.048;2022-07-18T13:57:46;24.90;71.30
18305;DHT22;9278;52.156;21.048;2022-07-18T14:00:16;24.90;73.10
18305;DHT22;9278;52.156;21.048;2022-07-18T14:02:45;24.50;73.40
18305;DHT22;9278;52.156;21.048;2022-07-18T14:05:14;24.50;73.50
18305;DHT22;9278;52.156;21.048;2022-07-18T14:07:49;24.80;72.90
18305;DHT22;9278;52.156;21.048;2022-07-18T14:10:19;24.80;71.40
18305;DHT22;9278;52.156;21.048;2022-07-18T14:12:53;24.50;73.10
18305;DHT22;9278;52.156;21.048;2022-07-18T14:15:22;24.60;70.90
18305;DHT22;9278;52.156;21.048;2022-07-18T14:17:53;24.60;70.50
18305;DHT22;9278;52.156;21.048;2022-07-18T14:20:27;24.40;73.40
18305;DHT22;9278;52.156;21.048;2022-07-18T14:23:00;24.70;94.30
18305;DHT22;9278;52.156;21.048;2022-07-18T14:25:31;25.00;69.20
18305;DHT22;9278;52.156;21.048;2022-07-18T14:27:59;25.50;65.30
18305;DHT22;9278;52.156;21.048;2022-07-18T14:30:29;25.30;65.30
18305;DHT22;9278;52.156;21.048;2022-07-18T14:32:57;24.70;66.40
18305;DHT22;9278;52.156;21.048;2022-07-18T14:35:25;24.20;68.20
18305;DHT22;9278;52.156;21.048;2022-07-18T14:37:55;24.20;70.60
18305;DHT22;9278;52.156;21.048;2022-07-18T14:40:25;24.50;71.30
18305;DHT22;9278;52.156;21.048;2022-07-18T14:42:53;24.20;69.20
18305;DHT22;9278;52.156;21.048;2022-07-18T14:45:21;24.40;69.60
18305;DHT22;9278;52.156;21.048;2022-07-18T14:47:58;24.40;68.50
18305;DHT22;9278;52.156;21.048;2022-07-18T14:50:26;24.60;67.60
18305;DHT22;9278;52.156;21.048;2022-07-18T14:52:55;24.50;66.90
18305;DHT22;9278;52.156;21.048;2022-07-18T14:55:23;24.60;65.70
18305;DHT22;9278;52.156;21.048;2022-07-18T14:57:52;24.40;66.00
18305;DHT22;9278;52.156;21.048;2022-07-18T15:00:22;24.20;69.80
18305;DHT22;9278;52.156;21.048;2022-07-18T15:02:50;24.20;67.80
18305;DHT22;9278;52.156;21.048;2022-07-18T15:05:20;24.20;71.70
18305;DHT22;9278;52.156;21.048;2022-07-18T15:07:48;24.20;69.20
18305;DHT22;9278;52.156;21.048;2022-07-18T15:10:16;24.10;69.60
18305;DHT22;9278;52.156;21.048;2022-07-18T15:12:45;24.00;70.20
18305;DHT22;9278;52.156;21.048;2022-07-18T15:15:13;24.40;68.50
18305;DHT22;9278;52.156;21.048;2022-07-18T15:17:41;24.40;67.40
18305;DHT22;9278;52.156;21.048;2022-07-18T15:20:10;24.60;64.70
18305;DHT22;9278;52.156;21.048;2022-07-18T15:22:40;24.70;63.90
18305;DHT22;9278;52.156;21.048;2022-07-18T15:25:09;24.40;66.60
18305;DHT22;9278;52.156;21.048;2022-07-18T15:27:37;24.80;64.20
18305;DHT22;9278;52.156;21.048;2022-07-18T15:30:07;24.80;64.30
18305;DHT22;9278;52.156;21.048;2022-07-18T15:32:55;25.60;61.90
18305;DHT22;9278;52.156;21.048;2022-07-18T15:35:24;26.00;56.10
18305;DHT22;9278;52.156;21.048;2022-07-18T15:37:53;25.70;56.70
18305;DHT22;9278;52.156;21.048;2022-07-18T15:40:23;25.80;55.90
18305;DHT22;9278;52.156;21.048;2022-07-18T15:42:51;25.50;56.80
18305;DHT22;9278;52.156;21.048;2022-07-18T15:45:21;25.60;84.50
18305;DHT22;9278;52.156;21.048;2022-07-18T15:47:49;24.70;61.10
18305;DHT22;9278;52.156;21.048;2022-07-18T15:50:18;25.00;59.90
18305;DHT22;9278;52.156;21.048;2022-07-18T15:52:46;25.00;60.70
18305;DHT22;9278;52.156;21.048;2022-07-18T15:55:16;25.20;58.10
18305;DHT22;9278;52.156;21.048;2022-07-18T15:57:44;24.90;59.80
18305;DHT22;9278;52.156;21.048;2022-07-18T16:00:13;25.10;59.50
18305;DHT22;9278;52.156;21.048;2022-07-18T16:02:41;25.30;57.20
18305;DHT22;9278;52.156;21.048;2022-07-18T16:05:10;25.40;55.90